Coniston, Canada
Current Conditions -  °F | °C
As of 8:00 AM on Friday 28 Nov 2014 (Local Time) from CYSB Reporting Station
Broken Clouds Broken Clouds  
Wind Chill: -26°   Ceiling: 24000
Heat Index: -9°   Visibility: 15mi
Dew Point: -13°   Wind: 8mph
Humidity: 84%   Direction: 330°NNW
Pressure: 30.18"   Gusts: NA
Location:  46.49°N, 80.85°W
Report Text: CYSB 281300Z 33007KT 15SM FEW005 SCT030 BKN240 M23/M25 A3018 RMK SF2SC1CI2 SLP252
Loading
Personal Weather Stations






























Interactive Weather Map New forecast layout! Learn more

10-Day Weather Forecast

Advertisements
Track Severe Weather on mobile